sensor_id;sensor_type;location;lat;lon;timestamp;temperature;humidity
10530;DHT22;5313;48.834;9.228;2023-04-15T00:00:33;5.80;99.90
10530;DHT22;5313;48.834;9.228;2023-04-15T00:02:59;5.90;99.90
10530;DHT22;5313;48.834;9.228;2023-04-15T00:05:28;6.00;99.90
10530;DHT22;5313;48.834;9.228;2023-04-15T00:07:53;5.90;99.90
10530;DHT22;5313;48.834;9.228;2023-04-15T00:10:19;5.80;99.90
10530;DHT22;5313;48.834;9.228;2023-04-15T00:12:44;5.80;99.90
10530;DHT22;5313;48.834;9.228;2023-04-15T00:15:10;5.90;99.90
10530;DHT22;5313;48.834;9.228;2023-04-15T00:17:37;5.90;99.90
10530;DHT22;5313;48.834;9.228;2023-04-15T00:20:04;5.90;99.90
10530;DHT22;5313;48.834;9.228;2023-04-15T00:22:31;5.70;99.90
10530;DHT22;5313;48.834;9.228;2023-04-15T00:24:56;5.60;99.90
10530;DHT22;5313;48.834;9.228;2023-04-15T00:27:22;5.60;99.90
10530;DHT22;5313;48.834;9.228;2023-04-15T00:29:48;5.70;99.90
10530;DHT22;5313;48.834;9.228;2023-04-15T00:32:13;5.70;99.90
10530;DHT22;5313;48.834;9.228;2023-04-15T00:34:39;5.70;99.90
10530;DHT22;5313;48.834;9.228;2023-04-15T00:37:05;5.60;99.90
10530;DHT22;5313;48.834;9.228;2023-04-15T00:39:30;5.50;99.90
10530;DHT22;5313;48.834;9.228;2023-04-15T00:41:56;5.60;99.90
10530;DHT22;5313;48.834;9.228;2023-04-15T00:44:22;5.60;99.90
10530;DHT22;5313;48.834;9.228;2023-04-15T00:46:50;5.60;99.90
10530;DHT22;5313;48.834;9.228;2023-04-15T00:49:16;5.50;99.90
10530;DHT22;5313;48.834;9.228;2023-04-15T00:51:42;5.50;99.90
10530;DHT22;5313;48.834;9.228;2023-04-15T00:54:09;5.40;99.90
10530;DHT22;5313;48.834;9.228;2023-04-15T00:56:38;5.30;99.90
10530;DHT22;5313;48.834;9.228;2023-04-15T00:59:04;5.00;99.90
10530;DHT22;5313;48.834;9.228;2023-04-15T01:01:34;5.00;99.90
10530;DHT22;5313;48.834;9.228;2023-04-15T01:04:00;5.00;99.90
10530;DHT22;5313;48.834;9.228;2023-04-15T01:06:26;5.10;99.90
10530;DHT22;5313;48.834;9.228;2023-04-15T01:08:53;5.00;99.90
10530;DHT22;5313;48.834;9.228;2023-04-15T01:11:20;4.90;99.90
10530;DHT22;5313;48.834;9.228;2023-04-15T01:13:46;4.90;99.90
10530;DHT22;5313;48.834;9.228;2023-04-15T01:16:13;4.90;99.90
10530;DHT22;5313;48.834;9.228;2023-04-15T01:18:39;4.90;99.90
10530;DHT22;5313;48.834;9.228;2023-04-15T01:21:05;4.90;99.90
10530;DHT22;5313;48.834;9.228;2023-04-15T01:23:32;4.80;99.90
10530;DHT22;5313;48.834;9.228;2023-04-15T01:25:58;4.80;99.90
10530;DHT22;5313;48.834;9.228;2023-04-15T01:28:24;4.70;99.90
10530;DHT22;5313;48.834;9.228;2023-04-15T01:31:03;4.60;99.90
10530;DHT22;5313;48.834;9.228;2023-04-15T01:33:30;4.60;99.90
10530;DHT22;5313;48.834;9.228;2023-04-15T01:35:55;4.60;99.90
10530;DHT22;5313;48.834;9.228;2023-04-15T01:38:21;4.60;99.90
10530;DHT22;5313;48.834;9.228;2023-04-15T01:40:47;4.50;99.90
10530;DHT22;5313;48.834;9.228;2023-04-15T01:43:13;4.50;99.90
10530;DHT22;5313;48.834;9.228;2023-04-15T01:45:39;4.50;99.90
10530;DHT22;5313;48.834;9.228;2023-04-15T01:48:05;4.60;99.90
10530;DHT22;5313;48.834;9.228;2023-04-15T01:50:31;4.70;99.90
10530;DHT22;5313;48.834;9.228;2023-04-15T01:52:57;4.70;99.90
10530;DHT22;5313;48.834;9.228;2023-04-15T01:55:22;4.70;99.90
10530;DHT22;5313;48.834;9.228;2023-04-15T01:57:48;4.70;99.90
10530;DHT22;5313;48.834;9.228;2023-04-15T02:00:13;4.70;99.90
10530;DHT22;5313;48.834;9.228;2023-04-15T02:02:39;4.70;99.90
10530;DHT22;5313;48.834;9.228;2023-04-15T02:05:05;4.60;99.90
10530;DHT22;5313;48.834;9.228;2023-04-15T02:07:30;4.40;99.90
10530;DHT22;5313;48.834;9.228;2023-04-15T02:09:56;4.40;99.90
10530;DHT22;5313;48.834;9.228;2023-04-15T02:12:22;4.40;99.90
10530;DHT22;5313;48.834;9.228;2023-04-15T02:14:47;4.50;99.90
10530;DHT22;5313;48.834;9.228;2023-04-15T02:17:13;4.40;99.90
10530;DHT22;5313;48.834;9.228;2023-04-15T02:19:38;4.40;99.90
10530;DHT22;5313;48.834;9.228;2023-04-15T02:22:04;4.50;99.90
10530;DHT22;5313;48.834;9.228;2023-04-15T02:24:31;4.50;99.90
10530;DHT22;5313;48.834;9.228;2023-04-15T02:26:57;4.50;99.90
10530;DHT22;5313;48.834;9.228;2023-04-15T02:29:22;4.40;99.90
10530;DHT22;5313;48.834;9.228;2023-04-15T02:31:48;4.30;99.90
10530;DHT22;5313;48.834;9.228;2023-04-15T02:34:14;4.40;99.90
10530;DHT22;5313;48.834;9.228;2023-04-15T02:36:39;4.30;99.90
10530;DHT22;5313;48.834;9.228;2023-04-15T02:39:05;4.20;99.90
10530;DHT22;5313;48.834;9.228;2023-04-15T02:41:31;4.20;99.90
10530;DHT22;5313;48.834;9.228;2023-04-15T02:43:56;4.10;99.90
10530;DHT22;5313;48.834;9.228;2023-04-15T02:46:22;4.10;99.90
10530;DHT22;5313;48.834;9.228;2023-04-15T02:48:48;4.20;99.90
10530;DHT22;5313;48.834;9.228;2023-04-15T02:51:18;4.20;99.90
10530;DHT22;5313;48.834;9.228;2023-04-15T02:53:45;4.30;99.90
10530;DHT22;5313;48.834;9.228;2023-04-15T02:56:11;4.20;99.90
10530;DHT22;5313;48.834;9.228;2023-04-15T02:58:38;4.30;99.90
10530;DHT22;5313;48.834;9.228;2023-04-15T03:01:04;4.10;99.90
10530;DHT22;5313;48.834;9.228;2023-04-15T03:03:30;4.00;99.90
10530;DHT22;5313;48.834;9.228;2023-04-15T03:05:55;3.90;99.90
10530;DHT22;5313;48.834;9.228;2023-04-15T03:08:21;3.80;99.90
10530;DHT22;5313;48.834;9.228;2023-04-15T03:10:46;3.80;99.90
10530;DHT22;5313;48.834;9.228;2023-04-15T03:13:12;3.90;99.90
10530;DHT22;5313;48.834;9.228;2023-04-15T03:15:38;4.00;99.90
10530;DHT22;5313;48.834;9.228;2023-04-15T03:18:03;4.10;99.90
10530;DHT22;5313;48.834;9.228;2023-04-15T03:20:29;3.80;99.90
10530;DHT22;5313;48.834;9.228;2023-04-15T03:22:55;3.70;99.90
10530;DHT22;5313;48.834;9.228;2023-04-15T03:25:20;3.70;99.90
10530;DHT22;5313;48.834;9.228;2023-04-15T03:27:46;3.70;99.90
10530;DHT22;5313;48.834;9.228;2023-04-15T03:30:11;3.80;99.90
10530;DHT22;5313;48.834;9.228;2023-04-15T03:32:37;3.80;99.90
10530;DHT22;5313;48.834;9.228;2023-04-15T03:35:03;3.90;99.90
10530;DHT22;5313;48.834;9.228;2023-04-15T03:37:29;3.90;99.90
10530;DHT22;5313;48.834;9.228;2023-04-15T03:39:54;4.00;99.90
10530;DHT22;5313;48.834;9.228;2023-04-15T03:42:20;3.80;99.90
10530;DHT22;5313;48.834;9.228;2023-04-15T03:44:45;3.70;99.90
10530;DHT22;5313;48.834;9.228;2023-04-15T03:47:11;3.90;99.90
10530;DHT22;5313;48.834;9.228;2023-04-15T03:49:36;3.90;99.90
10530;DHT22;5313;48.834;9.228;2023-04-15T03:52:02;3.90;99.90
10530;DHT22;5313;48.834;9.228;2023-04-15T03:54:27;4.00;99.90
10530;DHT22;5313;48.834;9.228;2023-04-15T03:56:53;3.90;99.90
10530;DHT22;5313;48.834;9.228;2023-04-15T03:59:18;4.00;99.90
10530;DHT22;5313;48.834;9.228;2023-04-15T04:01:44;4.00;99.90
10530;DHT22;5313;48.834;9.228;2023-04-15T04:04:10;3.90;99.90
10530;DHT22;5313;48.834;9.228;2023-04-15T04:06:35;3.80;99.90
10530;DHT22;5313;48.834;9.228;2023-04-15T04:09:01;3.80;99.90
10530;DHT22;5313;48.834;9.228;2023-04-15T04:11:26;3.90;99.90
10530;DHT22;5313;48.834;9.228;2023-04-15T04:13:52;3.80;99.90
10530;DHT22;5313;48.834;9.228;2023-04-15T04:16:18;3.90;99.90
10530;DHT22;5313;48.834;9.228;2023-04-15T04:18:44;3.80;99.90
10530;DHT22;5313;48.834;9.228;2023-04-15T04:21:09;3.90;99.90
10530;DHT22;5313;48.834;9.228;2023-04-15T04:23:35;3.80;99.90
10530;DHT22;5313;48.834;9.228;2023-04-15T04:26:00;3.80;99.90
10530;DHT22;5313;48.834;9.228;2023-04-15T04:28:27;3.90;99.90
10530;DHT22;5313;48.834;9.228;2023-04-15T04:30:52;3.70;99.90
10530;DHT22;5313;48.834;9.228;2023-04-15T04:33:18;3.80;99.90
10530;DHT22;5313;48.834;9.228;2023-04-15T04:35:43;3.80;99.90
10530;DHT22;5313;48.834;9.228;2023-04-15T04:38:09;3.80;99.90
10530;DHT22;5313;48.834;9.228;2023-04-15T04:40:35;3.90;99.90
10530;DHT22;5313;48.834;9.228;2023-04-15T04:43:01;3.80;99.90
10530;DHT22;5313;48.834;9.228;2023-04-15T04:45:26;3.60;99.90
10530;DHT22;5313;48.834;9.228;2023-04-15T04:47:52;3.60;99.90
10530;DHT22;5313;48.834;9.228;2023-04-15T04:50:18;3.60;99.90
10530;DHT22;5313;48.834;9.228;2023-04-15T04:52:43;3.70;99.90
10530;DHT22;5313;48.834;9.228;2023-04-15T04:55:09;3.90;99.90
10530;DHT22;5313;48.834;9.228;2023-04-15T04:57:34;3.90;99.90
10530;DHT22;5313;48.834;9.228;2023-04-15T05:00:05;3.90;99.90
10530;DHT22;5313;48.834;9.228;2023-04-15T05:02:30;3.90;99.90
10530;DHT22;5313;48.834;9.228;2023-04-15T05:04:56;3.90;99.90
10530;DHT22;5313;48.834;9.228;2023-04-15T05:07:22;3.80;99.90
10530;DHT22;5313;48.834;9.228;2023-04-15T05:09:47;3.60;99.90
10530;DHT22;5313;48.834;9.228;2023-04-15T05:12:13;3.70;99.90
10530;DHT22;5313;48.834;9.228;2023-04-15T05:14:40;3.80;99.90
10530;DHT22;5313;48.834;9.228;2023-04-15T05:17:07;3.80;99.90
10530;DHT22;5313;48.834;9.228;2023-04-15T05:19:32;3.10;99.90
10530;DHT22;5313;48.834;9.228;2023-04-15T05:21:58;3.70;99.90
10530;DHT22;5313;48.834;9.228;2023-04-15T05:24:23;3.80;99.90
10530;DHT22;5313;48.834;9.228;2023-04-15T05:26:49;3.80;99.90
10530;DHT22;5313;48.834;9.228;2023-04-15T05:29:15;3.80;99.90
10530;DHT22;5313;48.834;9.228;2023-04-15T05:31:41;3.80;99.90
10530;DHT22;5313;48.834;9.228;2023-04-15T05:34:07;3.80;99.90
10530;DHT22;5313;48.834;9.228;2023-04-15T05:36:32;3.80;99.90
10530;DHT22;5313;48.834;9.228;2023-04-15T05:38:58;3.90;99.90
10530;DHT22;5313;48.834;9.228;2023-04-15T05:41:23;3.90;99.90
10530;DHT22;5313;48.834;9.228;2023-04-15T05:43:49;4.00;99.90
10530;DHT22;5313;48.834;9.228;2023-04-15T05:46:15;4.00;99.90
10530;DHT22;5313;48.834;9.228;2023-04-15T05:48:40;4.10;99.90
10530;DHT22;5313;48.834;9.228;2023-04-15T05:51:06;4.00;99.90
10530;DHT22;5313;48.834;9.228;2023-04-15T05:53:31;4.20;99.90
10530;DHT22;5313;48.834;9.228;2023-04-15T05:55:57;4.30;99.90
10530;DHT22;5313;48.834;9.228;2023-04-15T05:58:22;4.30;99.90
10530;DHT22;5313;48.834;9.228;2023-04-15T06:00:48;4.50;99.90
10530;DHT22;5313;48.834;9.228;2023-04-15T06:03:15;4.50;99.90
10530;DHT22;5313;48.834;9.228;2023-04-15T06:05:41;4.60;99.90
10530;DHT22;5313;48.834;9.228;2023-04-15T06:08:06;4.70;99.90
10530;DHT22;5313;48.834;9.228;2023-04-15T06:10:34;4.80;99.90
10530;DHT22;5313;48.834;9.228;2023-04-15T06:13:04;5.00;99.90
10530;DHT22;5313;48.834;9.228;2023-04-15T06:15:29;5.20;99.90
10530;DHT22;5313;48.834;9.228;2023-04-15T06:17:55;5.40;99.90
10530;DHT22;5313;48.834;9.228;2023-04-15T06:20:21;5.50;99.90
10530;DHT22;5313;48.834;9.228;2023-04-15T06:22:46;5.50;99.90
10530;DHT22;5313;48.834;9.228;2023-04-15T06:25:12;5.60;99.90
10530;DHT22;5313;48.834;9.228;2023-04-15T06:27:38;5.80;99.90
10530;DHT22;5313;48.834;9.228;2023-04-15T06:30:04;6.00;99.90
10530;DHT22;5313;48.834;9.228;2023-04-15T06:32:31;6.20;99.90
10530;DHT22;5313;48.834;9.228;2023-04-15T06:34:57;6.40;99.90
10530;DHT22;5313;48.834;9.228;2023-04-15T06:37:22;6.50;99.90
10530;DHT22;5313;48.834;9.228;2023-04-15T06:39:48;6.60;99.90
10530;DHT22;5313;48.834;9.228;2023-04-15T06:42:13;6.70;99.90
10530;DHT22;5313;48.834;9.228;2023-04-15T06:44:39;6.80;99.90
10530;DHT22;5313;48.834;9.228;2023-04-15T06:47:04;6.80;99.90
10530;DHT22;5313;48.834;9.228;2023-04-15T06:49:30;6.90;99.90
10530;DHT22;5313;48.834;9.228;2023-04-15T06:51:56;7.00;99.90
10530;DHT22;5313;48.834;9.228;2023-04-15T06:54:21;7.10;99.90
10530;DHT22;5313;48.834;9.228;2023-04-15T06:56:47;7.30;99.90
10530;DHT22;5313;48.834;9.228;2023-04-15T06:59:13;7.40;99.90
10530;DHT22;5313;48.834;9.228;2023-04-15T07:01:40;7.30;99.90
10530;DHT22;5313;48.834;9.228;2023-04-15T07:04:06;7.20;99.90
10530;DHT22;5313;48.834;9.228;2023-04-15T07:06:31;7.10;99.90
10530;DHT22;5313;48.834;9.228;2023-04-15T07:08:58;7.10;99.90
10530;DHT22;5313;48.834;9.228;2023-04-15T07:11:25;7.10;99.90
10530;DHT22;5313;48.834;9.228;2023-04-15T07:13:50;7.10;99.90
10530;DHT22;5313;48.834;9.228;2023-04-15T07:16:16;7.20;99.90
10530;DHT22;5313;48.834;9.228;2023-04-15T07:18:41;7.30;99.90
10530;DHT22;5313;48.834;9.228;2023-04-15T07:21:07;7.30;99.90
10530;DHT22;5313;48.834;9.228;2023-04-15T07:23:33;7.30;99.90
10530;DHT22;5313;48.834;9.228;2023-04-15T07:25:59;7.30;99.90
10530;DHT22;5313;48.834;9.228;2023-04-15T07:28:24;7.20;99.90
10530;DHT22;5313;48.834;9.228;2023-04-15T07:30:50;7.30;99.90
10530;DHT22;5313;48.834;9.228;2023-04-15T07:33:15;7.30;99.90
10530;DHT22;5313;48.834;9.228;2023-04-15T07:35:41;7.30;99.90
10530;DHT22;5313;48.834;9.228;2023-04-15T07:38:06;7.50;99.90
10530;DHT22;5313;48.834;9.228;2023-04-15T07:40:32;7.70;99.90
10530;DHT22;5313;48.834;9.228;2023-04-15T07:42:58;8.10;99.90
10530;DHT22;5313;48.834;9.228;2023-04-15T07:45:24;8.40;99.90
10530;DHT22;5313;48.834;9.228;2023-04-15T07:47:49;8.70;99.90
10530;DHT22;5313;48.834;9.228;2023-04-15T07:50:17;8.90;99.90
10530;DHT22;5313;48.834;9.228;2023-04-15T07:52:44;8.90;99.90
10530;DHT22;5313;48.834;9.228;2023-04-15T07:55:10;9.00;99.90
10530;DHT22;5313;48.834;9.228;2023-04-15T07:57:35;9.10;99.90
10530;DHT22;5313;48.834;9.228;2023-04-15T08:00:02;9.20;99.90
10530;DHT22;5313;48.834;9.228;2023-04-15T08:02:30;9.30;99.90
10530;DHT22;5313;48.834;9.228;2023-04-15T08:04:56;9.50;99.90
10530;DHT22;5313;48.834;9.228;2023-04-15T08:07:22;9.70;99.90
10530;DHT22;5313;48.834;9.228;2023-04-15T08:09:47;9.80;99.90
10530;DHT22;5313;48.834;9.228;2023-04-15T08:12:13;9.70;99.90
10530;DHT22;5313;48.834;9.228;2023-04-15T08:14:39;9.80;99.90
10530;DHT22;5313;48.834;9.228;2023-04-15T08:17:05;9.90;99.90
10530;DHT22;5313;48.834;9.228;2023-04-15T08:19:30;10.10;99.90
10530;DHT22;5313;48.834;9.228;2023-04-15T08:21:56;10.40;99.90
10530;DHT22;5313;48.834;9.228;2023-04-15T08:24:22;10.50;99.90
10530;DHT22;5313;48.834;9.228;2023-04-15T08:26:47;10.60;99.90
10530;DHT22;5313;48.834;9.228;2023-04-15T08:29:13;10.70;99.90
10530;DHT22;5313;48.834;9.228;2023-04-15T08:31:38;10.60;99.90
10530;DHT22;5313;48.834;9.228;2023-04-15T08:34:04;10.70;99.90
10530;DHT22;5313;48.834;9.228;2023-04-15T08:36:29;10.80;99.90
10530;DHT22;5313;48.834;9.228;2023-04-15T08:38:57;11.00;99.90
10530;DHT22;5313;48.834;9.228;2023-04-15T08:41:26;11.00;99.90
10530;DHT22;5313;48.834;9.228;2023-04-15T08:44:03;11.30;99.90
10530;DHT22;5313;48.834;9.228;2023-04-15T08:46:32;11.40;99.90
10530;DHT22;5313;48.834;9.228;2023-04-15T08:49:00;11.60;99.90
10530;DHT22;5313;48.834;9.228;2023-04-15T08:51:27;11.60;99.90
10530;DHT22;5313;48.834;9.228;2023-04-15T08:53:53;11.80;99.90
10530;DHT22;5313;48.834;9.228;2023-04-15T08:56:23;11.80;99.90
10530;DHT22;5313;48.834;9.228;2023-04-15T08:58:49;11.70;99.90
10530;DHT22;5313;48.834;9.228;2023-04-15T09:01:15;11.90;99.90
10530;DHT22;5313;48.834;9.228;2023-04-15T09:03:41;12.00;99.90
10530;DHT22;5313;48.834;9.228;2023-04-15T09:06:07;12.20;99.90
10530;DHT22;5313;48.834;9.228;2023-04-15T09:08:33;12.40;99.90
10530;DHT22;5313;48.834;9.228;2023-04-15T09:11:01;12.40;99.90
10530;DHT22;5313;48.834;9.228;2023-04-15T09:13:27;12.50;99.90
10530;DHT22;5313;48.834;9.228;2023-04-15T09:15:53;12.70;99.90
10530;DHT22;5313;48.834;9.228;2023-04-15T09:18:29;12.90;99.90
10530;DHT22;5313;48.834;9.228;2023-04-15T09:20:55;13.00;99.90
10530;DHT22;5313;48.834;9.228;2023-04-15T09:23:21;12.80;99.90
10530;DHT22;5313;48.834;9.228;2023-04-15T09:25:47;12.70;99.90
10530;DHT22;5313;48.834;9.228;2023-04-15T09:28:14;12.90;99.90
10530;DHT22;5313;48.834;9.228;2023-04-15T09:30:42;13.10;99.90
10530;DHT22;5313;48.834;9.228;2023-04-15T09:33:13;13.20;99.90
10530;DHT22;5313;48.834;9.228;2023-04-15T09:35:39;13.30;99.90
10530;DHT22;5313;48.834;9.228;2023-04-15T09:38:07;13.40;99.90
10530;DHT22;5313;48.834;9.228;2023-04-15T09:40:37;13.20;99.90
10530;DHT22;5313;48.834;9.228;2023-04-15T09:43:04;13.10;99.90
10530;DHT22;5313;48.834;9.228;2023-04-15T09:45:32;13.30;99.90
10530;DHT22;5313;48.834;9.228;2023-04-15T09:48:00;13.30;99.90
10530;DHT22;5313;48.834;9.228;2023-04-15T09:50:42;13.00;99.90
10530;DHT22;5313;48.834;9.228;2023-04-15T09:53:09;13.00;99.90
10530;DHT22;5313;48.834;9.228;2023-04-15T09:55:36;13.20;99.90
10530;DHT22;5313;48.834;9.228;2023-04-15T09:58:07;13.10;99.90
10530;DHT22;5313;48.834;9.228;2023-04-15T10:00:33;13.40;99.90
10530;DHT22;5313;48.834;9.228;2023-04-15T10:02:58;13.50;99.90
10530;DHT22;5313;48.834;9.228;2023-04-15T10:05:24;13.60;99.90
10530;DHT22;5313;48.834;9.228;2023-04-15T10:07:50;13.60;99.90
10530;DHT22;5313;48.834;9.228;2023-04-15T10:10:16;13.60;99.90
10530;DHT22;5313;48.834;9.228;2023-04-15T10:12:42;13.50;99.90
10530;DHT22;5313;48.834;9.228;2023-04-15T10:15:14;13.40;99.90
10530;DHT22;5313;48.834;9.228;2023-04-15T10:17:42;13.90;99.90
10530;DHT22;5313;48.834;9.228;2023-04-15T10:20:09;14.30;99.90
10530;DHT22;5313;48.834;9.228;2023-04-15T10:22:37;14.30;99.90
10530;DHT22;5313;48.834;9.228;2023-04-15T10:25:04;14.00;99.90
10530;DHT22;5313;48.834;9.228;2023-04-15T10:27:30;13.70;99.90
10530;DHT22;5313;48.834;9.228;2023-04-15T10:29:59;13.90;99.90
10530;DHT22;5313;48.834;9.228;2023-04-15T10:32:25;13.80;99.90
10530;DHT22;5313;48.834;9.228;2023-04-15T10:34:51;13.60;99.90
10530;DHT22;5313;48.834;9.228;2023-04-15T10:37:24;13.60;99.90
10530;DHT22;5313;48.834;9.228;2023-04-15T10:39:57;13.70;99.90
10530;DHT22;5313;48.834;9.228;2023-04-15T10:42:23;13.60;99.90
10530;DHT22;5313;48.834;9.228;2023-04-15T10:44:49;13.60;99.90
10530;DHT22;5313;48.834;9.228;2023-04-15T10:47:19;13.80;99.90
10530;DHT22;5313;48.834;9.228;2023-04-15T10:49:46;13.90;99.90
10530;DHT22;5313;48.834;9.228;2023-04-15T10:52:14;14.10;99.90
10530;DHT22;5313;48.834;9.228;2023-04-15T10:54:41;13.90;99.90
10530;DHT22;5313;48.834;9.228;2023-04-15T10:57:09;13.80;99.90
10530;DHT22;5313;48.834;9.228;2023-04-15T11:05:05;14.40;99.90
10530;DHT22;5313;48.834;9.228;2023-04-15T11:12:46;14.90;99.90
10530;DHT22;5313;48.834;9.228;2023-04-15T11:15:31;15.00;99.90
10530;DHT22;5313;48.834;9.228;2023-04-15T11:17:58;14.80;99.90
10530;DHT22;5313;48.834;9.228;2023-04-15T11:20:24;15.00;99.90
10530;DHT22;5313;48.834;9.228;2023-04-15T11:22:52;15.10;99.90
10530;DHT22;5313;48.834;9.228;2023-04-15T11:25:25;14.80;99.90
10530;DHT22;5313;48.834;9.228;2023-04-15T11:27:52;14.50;99.90
10530;DHT22;5313;48.834;9.228;2023-04-15T11:30:21;14.20;99.90
10530;DHT22;5313;48.834;9.228;2023-04-15T11:32:48;14.00;99.90
10530;DHT22;5313;48.834;9.228;2023-04-15T11:35:15;13.90;99.90
10530;DHT22;5313;48.834;9.228;2023-04-15T11:37:41;13.80;99.90
10530;DHT22;5313;48.834;9.228;2023-04-15T11:40:08;13.50;99.90
10530;DHT22;5313;48.834;9.228;2023-04-15T11:42:33;13.40;99.90
10530;DHT22;5313;48.834;9.228;2023-04-15T11:45:13;13.10;99.90
10530;DHT22;5313;48.834;9.228;2023-04-15T11:47:40;13.20;99.90
10530;DHT22;5313;48.834;9.228;2023-04-15T11:50:16;13.30;99.90
10530;DHT22;5313;48.834;9.228;2023-04-15T11:53:12;13.20;99.90
10530;DHT22;5313;48.834;9.228;2023-04-15T11:55:56;13.50;99.90
10530;DHT22;5313;48.834;9.228;2023-04-15T11:58:24;13.70;99.90
10530;DHT22;5313;48.834;9.228;2023-04-15T12:00:57;13.90;99.90
10530;DHT22;5313;48.834;9.228;2023-04-15T12:03:25;14.00;99.90
10530;DHT22;5313;48.834;9.228;2023-04-15T12:06:30;13.80;99.90
10530;DHT22;5313;48.834;9.228;2023-04-15T12:09:14;13.10;99.90
10530;DHT22;5313;48.834;9.228;2023-04-15T12:11:45;13.00;99.90
10530;DHT22;5313;48.834;9.228;2023-04-15T12:16:45;13.10;99.90
10530;DHT22;5313;48.834;9.228;2023-04-15T12:19:13;13.00;99.90
10530;DHT22;5313;48.834;9.228;2023-04-15T12:21:41;13.00;99.90
10530;DHT22;5313;48.834;9.228;2023-04-15T12:24:10;13.00;99.90
10530;DHT22;5313;48.834;9.228;2023-04-15T12:26:43;12.70;99.90
10530;DHT22;5313;48.834;9.228;2023-04-15T12:29:11;12.10;99.90
10530;DHT22;5313;48.834;9.228;2023-04-15T12:34:15;10.70;99.90
10530;DHT22;5313;48.834;9.228;2023-04-15T12:36:41;10.40;99.90
10530;DHT22;5313;48.834;9.228;2023-04-15T12:39:06;10.00;99.90
10530;DHT22;5313;48.834;9.228;2023-04-15T12:41:32;9.80;99.90
10530;DHT22;5313;48.834;9.228;2023-04-15T12:43:58;9.50;99.90
10530;DHT22;5313;48.834;9.228;2023-04-15T12:46:24;9.30;99.90
10530;DHT22;5313;48.834;9.228;2023-04-15T12:48:50;9.20;99.90
10530;DHT22;5313;48.834;9.228;2023-04-15T12:51:19;9.30;99.90
10530;DHT22;5313;48.834;9.228;2023-04-15T12:53:48;9.40;99.90
10530;DHT22;5313;48.834;9.228;2023-04-15T12:56:14;9.60;99.90
10530;DHT22;5313;48.834;9.228;2023-04-15T12:58:40;9.80;99.90
10530;DHT22;5313;48.834;9.228;2023-04-15T13:01:06;9.90;99.90
10530;DHT22;5313;48.834;9.228;2023-04-15T13:03:31;10.10;99.90
10530;DHT22;5313;48.834;9.228;2023-04-15T13:05:57;10.40;99.90
10530;DHT22;5313;48.834;9.228;2023-04-15T13:08:22;10.50;99.90
10530;DHT22;5313;48.834;9.228;2023-04-15T13:10:49;10.70;99.90
10530;DHT22;5313;48.834;9.228;2023-04-15T13:13:15;10.80;99.90
10530;DHT22;5313;48.834;9.228;2023-04-15T13:15:41;11.00;99.90
10530;DHT22;5313;48.834;9.228;2023-04-15T13:18:09;11.10;99.90
10530;DHT22;5313;48.834;9.228;2023-04-15T13:20:35;11.20;99.90
10530;DHT22;5313;48.834;9.228;2023-04-15T13:23:01;11.30;99.90
10530;DHT22;5313;48.834;9.228;2023-04-15T13:25:26;11.40;99.90
10530;DHT22;5313;48.834;9.228;2023-04-15T13:27:52;11.40;99.90
10530;DHT22;5313;48.834;9.228;2023-04-15T13:30:19;11.40;99.90
10530;DHT22;5313;48.834;9.228;2023-04-15T13:32:44;11.60;99.90
10530;DHT22;5313;48.834;9.228;2023-04-15T13:35:10;11.80;99.90
10530;DHT22;5313;48.834;9.228;2023-04-15T13:37:35;11.90;99.90
10530;DHT22;5313;48.834;9.228;2023-04-15T13:40:01;12.00;99.90
10530;DHT22;5313;48.834;9.228;2023-04-15T13:42:27;12.10;99.90
10530;DHT22;5313;48.834;9.228;2023-04-15T13:44:52;12.20;99.90
10530;DHT22;5313;48.834;9.228;2023-04-15T13:47:18;12.20;99.90
10530;DHT22;5313;48.834;9.228;2023-04-15T13:49:44;12.10;99.90
10530;DHT22;5313;48.834;9.228;2023-04-15T13:52:11;12.00;99.90
10530;DHT22;5313;48.834;9.228;2023-04-15T13:54:36;12.10;99.90
10530;DHT22;5313;48.834;9.228;2023-04-15T13:57:02;12.00;99.90
10530;DHT22;5313;48.834;9.228;2023-04-15T13:59:27;12.10;99.90
10530;DHT22;5313;48.834;9.228;2023-04-15T14:01:53;12.10;99.90
10530;DHT22;5313;48.834;9.228;2023-04-15T14:04:18;12.00;99.90
10530;DHT22;5313;48.834;9.228;2023-04-15T14:06:44;12.00;99.90
10530;DHT22;5313;48.834;9.228;2023-04-15T14:09:10;12.00;99.90
10530;DHT22;5313;48.834;9.228;2023-04-15T14:11:37;12.00;99.90
10530;DHT22;5313;48.834;9.228;2023-04-15T14:14:03;12.00;99.90
10530;DHT22;5313;48.834;9.228;2023-04-15T14:16:29;12.10;99.90
10530;DHT22;5313;48.834;9.228;2023-04-15T14:18:56;12.20;99.90
10530;DHT22;5313;48.834;9.228;2023-04-15T14:21:22;12.00;99.90
10530;DHT22;5313;48.834;9.228;2023-04-15T14:23:48;11.90;99.90
10530;DHT22;5313;48.834;9.228;2023-04-15T14:26:13;11.90;99.90
10530;DHT22;5313;48.834;9.228;2023-04-15T14:28:39;11.80;99.90
10530;DHT22;5313;48.834;9.228;2023-04-15T14:31:05;11.80;99.90
10530;DHT22;5313;48.834;9.228;2023-04-15T14:33:31;11.80;99.90
10530;DHT22;5313;48.834;9.228;2023-04-15T14:35:56;11.80;99.90
10530;DHT22;5313;48.834;9.228;2023-04-15T14:38:22;11.80;99.90
10530;DHT22;5313;48.834;9.228;2023-04-15T14:40:47;11.80;99.90
10530;DHT22;5313;48.834;9.228;2023-04-15T14:43:13;11.90;99.90
10530;DHT22;5313;48.834;9.228;2023-04-15T14:45:39;11.80;99.90
10530;DHT22;5313;48.834;9.228;2023-04-15T14:48:04;11.70;99.90
10530;DHT22;5313;48.834;9.228;2023-04-15T14:50:34;11.70;99.90
10530;DHT22;5313;48.834;9.228;2023-04-15T14:52:59;11.60;99.90
10530;DHT22;5313;48.834;9.228;2023-04-15T14:55:25;11.70;99.90
10530;DHT22;5313;48.834;9.228;2023-04-15T14:57:51;11.70;99.90
10530;DHT22;5313;48.834;9.228;2023-04-15T15:00:16;11.60;99.90
10530;DHT22;5313;48.834;9.228;2023-04-15T15:02:42;11.60;99.90
10530;DHT22;5313;48.834;9.228;2023-04-15T15:05:09;11.60;99.90
10530;DHT22;5313;48.834;9.228;2023-04-15T15:07:35;11.60;99.90
10530;DHT22;5313;48.834;9.228;2023-04-15T15:10:01;11.50;99.90
10530;DHT22;5313;48.834;9.228;2023-04-15T15:12:27;11.40;99.90
10530;DHT22;5313;48.834;9.228;2023-04-15T15:14:54;11.30;99.90
10530;DHT22;5313;48.834;9.228;2023-04-15T15:17:19;11.30;99.90
10530;DHT22;5313;48.834;9.228;2023-04-15T15:19:45;11.20;99.90
10530;DHT22;5313;48.834;9.228;2023-04-15T15:22:10;11.20;99.90
10530;DHT22;5313;48.834;9.228;2023-04-15T15:24:36;11.20;99.90
10530;DHT22;5313;48.834;9.228;2023-04-15T15:27:02;11.00;99.90
10530;DHT22;5313;48.834;9.228;2023-04-15T15:29:27;11.00;99.90
10530;DHT22;5313;48.834;9.228;2023-04-15T15:31:53;11.00;99.90
10530;DHT22;5313;48.834;9.228;2023-04-15T15:34:18;10.80;99.90
10530;DHT22;5313;48.834;9.228;2023-04-15T15:36:44;10.80;99.90
10530;DHT22;5313;48.834;9.228;2023-04-15T15:39:09;10.80;99.90
10530;DHT22;5313;48.834;9.228;2023-04-15T15:41:35;10.90;99.90
10530;DHT22;5313;48.834;9.228;2023-04-15T15:44:01;10.90;99.90
10530;DHT22;5313;48.834;9.228;2023-04-15T15:46:27;10.90;99.90
10530;DHT22;5313;48.834;9.228;2023-04-15T15:48:53;11.00;99.90
10530;DHT22;5313;48.834;9.228;2023-04-15T15:51:19;11.00;99.90
10530;DHT22;5313;48.834;9.228;2023-04-15T15:53:45;11.00;99.90
10530;DHT22;5313;48.834;9.228;2023-04-15T15:56:10;11.00;99.90
10530;DHT22;5313;48.834;9.228;2023-04-15T15:58:36;11.00;99.90
10530;DHT22;5313;48.834;9.228;2023-04-15T16:01:02;10.70;99.90
10530;DHT22;5313;48.834;9.228;2023-04-15T16:03:28;10.50;99.90
10530;DHT22;5313;48.834;9.228;2023-04-15T16:05:53;10.40;99.90